Terminal Aerodrome Forecast
Issued by NWS Mt. Holly, NJ

Home | Current Version | Previous Version | Text Only | Print | Product List | Glossary On
Versions: 1 2 3 4 5 6 7 8 9 10 11 12 13 14 15 16 17 18
000
FTUS41 KPHI 190500
TAFTTN
TAF
KTTN 190527Z 1906/2006 04005KT P6SM FEW080
     FM191300 06008KT P6SM FEW060
     FM191800 11008KT P6SM SCT060
     FM192100 14010KT P6SM SCT060
     FM200300 14008KT P6SM BKN035=

USA.gov is the U.S. government's official web portal to all federal, state and local government web resources and services.